Time;durP1;ratioP1;P1;durP2;ratioP2;P2;SDS_P1;SDS_P2;PMS_P1;PMS_P2;Temp;Humidity;BMP_temperature;BMP_pressure;BME280_temperature;BME280_humidity;BME280_pressure;Samples;Min_cycle;Max_cycle;Signal;HPM_P1;HPM_P2
2023/09/13 00:01:07;;;;;;;18.10;12.00;;;;;;;15.31;65.64;100726.17;107931;1254;60483;-71
2023/09/13 00:03:35;;;;;;;15.20;12.20;;;;;;;15.22;65.72;100719.52;108030;1254;73954;-71
2023/09/13 00:06:04;;;;;;;15.80;11.40;;;;;;;15.12;65.90;100722.95;108000;1254;72733;-71
2023/09/13 00:08:32;;;;;;;15.60;11.70;;;;;;;15.05;66.08;100722.70;108088;1254;72775;-72
2023/09/13 00:11:03;;;;;;;15.10;11.50;;;;;;;15.00;66.11;100722.58;108039;1254;63999;-71
2023/09/13 00:13:32;;;;;;;15.10;11.50;;;;;;;14.99;66.34;100728.77;108006;1254;60321;-72
2023/09/13 00:15:59;;;;;;;15.30;11.40;;;;;;;14.98;66.33;100728.30;108155;1253;73860;-71
2023/09/13 00:18:27;;;;;;;16.40;11.90;;;;;;;14.96;66.44;100723.20;108024;1254;72955;-71
2023/09/13 00:20:55;;;;;;;13.60;11.00;;;;;;;14.88;66.42;100718.05;107949;1257;71437;-72
2023/09/13 00:23:22;;;;;;;17.00;11.20;;;;;;;14.83;66.52;100711.69;108096;1253;61667;-72
2023/09/13 00:25:50;;;;;;;14.50;10.50;;;;;;;14.81;66.70;100712.52;108062;1254;60313;-72
2023/09/13 00:28:17;;;;;;;14.10;11.30;;;;;;;14.81;66.66;100712.94;108181;1254;72559;-72
2023/09/13 00:30:45;;;;;;;17.20;11.30;;;;;;;14.80;66.79;100713.11;108033;1254;72696;-72
2023/09/13 00:33:13;;;;;;;13.70;10.90;;;;;;;14.78;66.82;100712.75;107990;1253;71497;-70
2023/09/13 00:35:40;;;;;;;15.50;10.90;;;;;;;14.78;66.87;100711.89;107959;1253;63971;-73
2023/09/13 00:38:08;;;;;;;14.90;10.90;;;;;;;14.76;66.97;100710.73;108064;1253;59064;-72
2023/09/13 00:40:36;;;;;;;15.50;11.30;;;;;;;14.74;66.92;100711.43;107994;1254;73921;-71
2023/09/13 00:43:03;;;;;;;14.20;10.30;;;;;;;14.74;67.14;100711.17;108038;1254;70900;-72
2023/09/13 00:45:32;;;;;;;16.10;10.70;;;;;;;14.75;67.10;100711.86;108238;1254;71453;-72
2023/09/13 00:48:00;;;;;;;13.80;11.00;;;;;;;14.76;67.02;100710.45;107967;1254;60396;-72
2023/09/13 00:50:28;;;;;;;15.60;11.10;;;;;;;14.75;67.08;100710.46;108100;1254;59519;-72
2023/09/13 00:53:10;;;;;;;;;;;;;;;14.72;67.13;100710.16;108093;1253;72597;-71
2023/09/13 00:55:38;;;;;;;14.20;11.40;;;;;;;14.69;67.12;100708.14;108105;1254;73234;-71
2023/09/13 00:58:07;;;;;;;15.80;11.20;;;;;;;14.67;67.19;100704.77;108038;1254;73519;-71
2023/09/13 01:00:35;;;;;;;14.70;11.30;;;;;;;14.67;67.32;100705.63;108137;1253;60539;-73
2023/09/13 01:03:06;;;;;;;15.20;11.30;;;;;;;14.66;67.45;100705.30;107932;1254;60315;-71
2023/09/13 01:05:35;;;;;;;18.10;11.90;;;;;;;14.66;67.53;100703.59;108042;1254;73913;-71
2023/09/13 01:08:03;;;;;;;15.60;11.40;;;;;;;14.65;67.64;100705.02;108194;1253;72796;-73
2023/09/13 01:10:31;;;;;;;16.60;11.70;;;;;;;14.67;67.67;100704.40;107816;1256;73374;-73
2023/09/13 01:12:58;;;;;;;17.00;12.80;;;;;;;14.69;67.64;100702.02;108089;1257;61710;-71
2023/09/13 01:15:27;;;;;;;17.80;12.60;;;;;;;14.69;67.61;100700.45;108169;1254;60460;-71
2023/09/13 01:18:03;;;;;;;16.30;12.40;;;;;;;14.72;67.56;100696.19;108281;1253;73864;-71
2023/09/13 01:20:52;;;;;;;16.30;12.20;;;;;;;14.74;67.65;100693.20;107882;1260;72537;-72
2023/09/13 01:23:41;;;;;;;17.60;12.40;;;;;;;14.74;67.57;100693.10;108069;1254;72489;-72
2023/09/13 01:26:26;;;;;;;18.30;12.00;;;;;;;14.72;67.56;100695.75;108036;1254;61661;-72
2023/09/13 01:28:55;;;;;;;17.10;12.20;;;;;;;14.70;67.57;100692.44;108046;1253;60029;-70
2023/09/13 01:31:24;;;;;;;16.30;12.20;;;;;;;14.70;67.59;100693.02;107960;1254;73073;-70
2023/09/13 01:33:53;;;;;;;16.00;11.90;;;;;;;14.71;67.64;100693.19;108134;1254;71768;-71
2023/09/13 01:36:21;;;;;;;16.50;11.50;;;;;;;14.73;67.64;100689.73;107852;1254;72722;-70
2023/09/13 01:38:49;;;;;;;14.10;11.10;;;;;;;14.74;67.61;100693.86;107814;1257;60745;-71
2023/09/13 01:41:25;;;;;;;16.20;12.00;;;;;;;14.73;67.55;100693.95;107912;1254;60641;-71
2023/09/13 01:43:54;;;;;;;16.60;12.10;;;;;;;14.73;67.48;100691.81;107956;1253;72615;-71
2023/09/13 01:46:27;;;;;;;16.50;12.10;;;;;;;14.74;67.35;100691.00;107754;1255;72809;-71
2023/09/13 01:48:56;;;;;;;16.80;11.80;;;;;;;14.74;67.36;100692.04;108047;1254;71287;-72
2023/09/13 01:51:25;;;;;;;14.50;11.50;;;;;;;14.75;67.30;100690.77;108007;1254;60614;-71
2023/09/13 01:53:54;;;;;;;16.20;11.60;;;;;;;14.75;67.22;100688.54;107945;1253;60306;-71
2023/09/13 01:56:22;;;;;;;15.60;11.60;;;;;;;14.74;67.14;100687.61;108042;1254;73803;-72
2023/09/13 01:58:50;;;;;;;16.80;11.80;;;;;;;14.73;67.03;100690.52;107897;1254;71419;-72
2023/09/13 02:01:18;;;;;;;18.70;12.70;;;;;;;14.71;66.97;100691.52;107886;1253;71539;-72
2023/09/13 02:03:45;;;;;;;19.00;12.10;;;;;;;14.69;66.96;100690.98;108099;1260;60464;-72
2023/09/13 02:06:14;;;;;;;17.20;13.20;;;;;;;14.67;66.80;100688.95;108056;1254;60341;-73
2023/09/13 02:08:42;;;;;;;16.90;12.40;;;;;;;14.65;66.75;100692.42;108204;1254;73858;-72
2023/09/13 02:11:10;;;;;;;16.20;12.60;;;;;;;14.62;66.73;100691.52;108090;1254;71588;-71
2023/09/13 02:13:38;;;;;;;15.30;12.30;;;;;;;14.59;66.64;100691.88;108143;1254;73184;-73
2023/09/13 02:16:07;;;;;;;17.50;12.90;;;;;;;14.51;66.82;100692.45;107938;1257;60512;-72
2023/09/13 02:18:35;;;;;;;16.80;13.20;;;;;;;14.45;66.89;100694.58;108087;1254;60348;-72
2023/09/13 02:21:05;;;;;;;16.20;12.90;;;;;;;14.35;66.77;100694.15;108167;1253;72869;-72
2023/09/13 02:23:32;;;;;;;16.50;13.40;;;;;;;14.26;67.12;100695.99;108091;1259;71147;-72
2023/09/13 02:26:00;;;;;;;16.60;12.70;;;;;;;14.20;67.33;100694.41;108199;1254;71356;-71
2023/09/13 02:28:28;;;;;;;17.50;12.50;;;;;;;14.14;67.42;100694.61;108055;1256;61043;-71
2023/09/13 02:30:56;;;;;;;16.30;12.40;;;;;;;14.07;67.44;100696.08;108111;1254;60303;-71
2023/09/13 02:33:24;;;;;;;19.00;12.40;;;;;;;14.02;67.49;100694.98;108075;1253;74558;-72
2023/09/13 02:35:51;;;;;;;14.50;12.10;;;;;;;13.94;67.55;100694.91;108119;1254;72720;-72
2023/09/13 02:38:19;;;;;;;14.60;11.30;;;;;;;13.90;67.65;100692.63;107966;1254;71819;-72
2023/09/13 02:40:51;;;;;;;15.00;11.90;;;;;;;13.94;67.71;100690.30;108019;1254;60367;-71
2023/09/13 02:43:18;;;;;;;15.30;11.70;;;;;;;14.00;67.63;100689.73;108066;1253;60173;-70
2023/09/13 02:45:46;;;;;;;17.40;12.00;;;;;;;14.02;67.41;100685.86;108265;1254;72879;-72
2023/09/13 02:48:14;;;;;;;15.70;12.30;;;;;;;14.02;67.48;100688.34;107968;1253;72796;-71
2023/09/13 02:50:41;;;;;;;16.60;12.40;;;;;;;14.01;67.35;100689.35;108318;1254;74798;-72
2023/09/13 02:53:09;;;;;;;16.30;12.10;;;;;;;14.02;67.46;100687.95;107709;1253;61729;-72
2023/09/13 02:55:37;;;;;;;16.10;12.70;;;;;;;14.02;67.42;100684.41;107818;1254;60346;-72
2023/09/13 02:58:06;;;;;;;16.80;12.90;;;;;;;13.98;67.38;100687.52;108097;1254;73850;-72
2023/09/13 03:00:34;;;;;;;15.70;12.80;;;;;;;13.99;67.49;100687.96;107964;1255;75328;-71
2023/09/13 03:03:01;;;;;;;17.50;13.00;;;;;;;13.98;67.36;100689.69;107797;1257;72479;-72
2023/09/13 03:05:29;;;;;;;17.40;13.50;;;;;;;13.95;67.32;100690.45;107917;1256;63105;-72
2023/09/13 03:07:59;;;;;;;17.40;12.80;;;;;;;13.86;67.38;100694.14;108158;1255;60328;-72
2023/09/13 03:10:27;;;;;;;18.80;13.60;;;;;;;13.53;68.27;100692.66;108047;1258;73957;-72
2023/09/13 03:12:54;;;;;;;18.10;13.40;;;;;;;13.81;67.92;100691.21;108090;1254;71454;-72
2023/09/13 03:15:22;;;;;;;18.70;13.20;;;;;;;13.91;67.54;100690.85;107983;1254;72638;-73
2023/09/13 03:17:50;;;;;;;16.10;12.70;;;;;;;13.92;67.49;100690.63;108005;1256;61761;-72
2023/09/13 03:20:18;;;;;;;14.40;12.90;;;;;;;13.93;67.47;100691.23;107937;1253;60309;-72
2023/09/13 03:22:46;;;;;;;16.80;12.60;;;;;;;13.94;67.41;100687.18;108077;1254;72139;-73
2023/09/13 03:25:14;;;;;;;16.00;12.20;;;;;;;13.95;67.37;100684.43;107970;1253;72447;-72
2023/09/13 03:27:42;;;;;;;15.00;12.20;;;;;;;13.94;67.42;100686.48;108067;1254;72743;-73
2023/09/13 03:30:11;;;;;;;18.10;12.50;;;;;;;13.94;67.41;100690.08;108061;1254;60660;-72
2023/09/13 03:32:38;;;;;;;18.00;12.80;;;;;;;13.94;67.47;100689.16;107907;1254;60329;-71
2023/09/13 03:35:07;;;;;;;18.70;13.10;;;;;;;13.94;67.61;100691.86;108031;1255;73078;-72
2023/09/13 03:37:36;;;;;;;15.10;12.10;;;;;;;13.94;67.60;100693.45;108041;1254;71687;-72
2023/09/13 03:40:05;;;;;;;16.10;12.50;;;;;;;13.93;67.66;100693.52;108139;1258;72669;-71
2023/09/13 03:42:33;;;;;;;16.20;13.20;;;;;;;13.89;67.68;100697.89;107982;1254;60482;-72
2023/09/13 03:45:01;;;;;;;18.50;13.20;;;;;;;13.85;67.79;100701.23;108136;1254;60431;-72
2023/09/13 03:47:29;;;;;;;18.50;13.60;;;;;;;13.82;67.89;100701.58;108049;1253;73901;-72
2023/09/13 03:49:57;;;;;;;19.50;13.70;;;;;;;13.82;68.08;100705.66;108016;1254;72871;-72
2023/09/13 03:52:25;;;;;;;16.30;13.10;;;;;;;13.86;68.24;100707.84;107982;1254;71525;-73
2023/09/13 03:54:53;;;;;;;18.00;13.60;;;;;;;13.92;68.27;100711.69;108064;1254;60372;-71
2023/09/13 03:57:20;;;;;;;17.70;13.70;;;;;;;13.98;68.35;100711.39;108067;1254;60417;-71
2023/09/13 03:59:48;;;;;;;16.40;13.70;;;;;;;14.05;68.53;100716.19;107920;1254;73895;-72
2023/09/13 04:02:15;;;;;;;16.80;13.30;;;;;;;14.12;68.70;100714.97;107922;1254;72473;-72
2023/09/13 04:04:43;;;;;;;17.40;13.60;;;;;;;14.18;68.72;100712.57;107992;1254;74677;-71
2023/09/13 04:07:11;;;;;;;16.60;13.70;;;;;;;14.22;68.76;100709.16;107921;1254;61855;-71
2023/09/13 04:09:38;;;;;;;16.70;13.70;;;;;;;14.28;68.87;100708.80;108074;1254;60315;-72
2023/09/13 04:12:06;;;;;;;19.10;15.50;;;;;;;14.35;68.98;100706.79;108070;1254;72900;-71
2023/09/13 04:14:34;;;;;;;17.40;14.00;;;;;;;14.43;68.96;100710.50;108021;1254;72593;-71
2023/09/13 04:17:02;;;;;;;19.00;14.80;;;;;;;14.49;68.91;100710.30;107999;1254;71041;-71
2023/09/13 04:19:31;;;;;;;19.10;14.40;;;;;;;14.52;68.93;100711.80;108068;1255;60654;-72
2023/09/13 04:21:59;;;;;;;20.20;14.70;;;;;;;14.35;69.52;100712.58;108107;1254;60872;-72
2023/09/13 04:24:27;;;;;;;20.50;15.30;;;;;;;14.58;69.33;100715.20;107930;1256;73947;-72
2023/09/13 04:26:56;;;;;;;18.60;14.90;;;;;;;14.74;69.02;100715.64;108088;1257;71426;-71
2023/09/13 04:29:25;;;;;;;20.50;15.00;;;;;;;14.51;69.62;100718.41;108050;1256;72467;-71
2023/09/13 04:31:52;;;;;;;18.90;15.40;;;;;;;14.80;69.22;100717.89;108088;1254;60551;-74
2023/09/13 04:34:21;;;;;;;18.90;15.70;;;;;;;14.91;68.97;100719.16;108028;1260;60325;-72
2023/09/13 04:36:48;;;;;;;19.20;14.90;;;;;;;14.98;69.04;100725.06;108114;1254;73037;-72
2023/09/13 04:39:16;;;;;;;21.40;14.40;;;;;;;15.05;68.90;100718.98;107998;1257;71606;-72
2023/09/13 04:41:44;;;;;;;18.20;14.50;;;;;;;15.07;68.90;100718.02;108008;1254;72458;-72
2023/09/13 04:44:11;;;;;;;17.60;14.90;;;;;;;15.08;69.02;100720.95;108011;1253;64506;-72
2023/09/13 04:46:39;;;;;;;19.70;15.10;;;;;;;15.16;69.13;100716.52;108116;1254;60351;-72
2023/09/13 04:49:07;;;;;;;21.50;14.90;;;;;;;15.27;69.11;100718.29;108017;1254;72441;-72
2023/09/13 04:51:35;;;;;;;19.30;14.80;;;;;;;15.39;69.05;100715.54;108077;1256;71786;-72
2023/09/13 04:54:04;;;;;;;23.20;15.20;;;;;;;15.49;69.06;100717.16;107828;1260;71612;-72
2023/09/13 04:56:31;;;;;;;18.30;15.30;;;;;;;15.61;69.10;100718.01;107960;1254;60402;-72
2023/09/13 04:58:59;;;;;;;18.00;14.00;;;;;;;15.75;68.90;100714.85;108055;1254;60290;-72
2023/09/13 05:01:26;;;;;;;20.30;14.90;;;;;;;15.88;68.68;100717.71;108080;1254;72702;-72
2023/09/13 05:03:56;;;;;;;17.80;14.30;;;;;;;16.02;68.49;100718.50;107962;1254;74951;-72
2023/09/13 05:06:24;;;;;;;18.40;15.10;;;;;;;16.16;68.26;100716.96;108041;1254;72440;-72
2023/09/13 05:08:53;;;;;;;18.10;14.50;;;;;;;16.30;67.96;100722.66;108028;1254;61744;-72
2023/09/13 05:11:20;;;;;;;19.60;15.00;;;;;;;16.40;67.58;100719.88;108072;1258;61108;-70
2023/09/13 05:13:48;;;;;;;18.50;14.70;;;;;;;16.48;67.35;100719.70;108049;1254;72655;-71
2023/09/13 05:16:19;;;;;;;20.30;15.00;;;;;;;16.59;67.19;100714.04;108109;1258;73336;-72
2023/09/13 05:18:47;;;;;;;19.10;14.40;;;;;;;16.72;66.92;100707.80;108123;1254;71553;-72
2023/09/13 05:21:15;;;;;;;18.50;14.50;;;;;;;16.85;66.64;100707.90;108116;1257;60733;-72
2023/09/13 05:23:42;;;;;;;18.40;14.10;;;;;;;16.95;66.32;100703.50;108200;1254;60286;-73
2023/09/13 05:26:10;;;;;;;18.70;14.80;;;;;;;16.72;66.79;100706.34;108145;1254;73895;-73
2023/09/13 05:28:38;;;;;;;17.60;13.20;;;;;;;16.88;66.84;100711.27;108071;1259;73098;-73
2023/09/13 05:31:06;;;;;;;19.50;13.50;;;;;;;17.19;65.84;100706.13;107960;1258;72646;-72
2023/09/13 05:33:34;;;;;;;20.10;13.70;;;;;;;17.29;65.65;100707.71;108065;1254;60513;-72
2023/09/13 05:36:04;;;;;;;17.00;13.50;;;;;;;17.42;65.18;100711.05;108089;1253;62263;-73
2023/09/13 05:38:32;;;;;;;18.80;12.80;;;;;;;17.54;64.89;100709.84;107985;1254;73889;-72
2023/09/13 05:41:07;;;;;;;16.60;12.70;;;;;;;17.67;64.58;100710.84;108078;1254;72665;-72
2023/09/13 05:43:36;;;;;;;17.80;12.80;;;;;;;17.81;64.27;100709.05;108104;1254;72468;-73
2023/09/13 05:46:04;;;;;;;16.90;12.20;;;;;;;17.96;63.76;100709.56;108043;1254;61680;-72
2023/09/13 05:48:32;;;;;;;18.30;12.40;;;;;;;18.10;63.39;100706.89;108080;1254;60290;-73
2023/09/13 05:51:01;;;;;;;19.10;12.30;;;;;;;18.24;63.07;100710.44;108036;1254;73834;-72
2023/09/13 05:53:29;;;;;;;17.40;11.60;;;;;;;18.38;62.68;100711.95;108547;1254;71551;-72
2023/09/13 05:55:56;;;;;;;15.50;11.60;;;;;;;18.51;62.02;100711.59;108177;1255;71803;-74
2023/09/13 05:58:24;;;;;;;15.10;11.40;;;;;;;18.64;61.53;100711.88;108110;1254;60421;-72
2023/09/13 06:00:53;;;;;;;15.70;11.60;;;;;;;18.77;61.10;100710.09;108060;1254;59378;-73
2023/09/13 06:03:22;;;;;;;18.70;11.50;;;;;;;18.90;60.69;100711.45;108025;1253;73779;-73
2023/09/13 06:05:51;;;;;;;13.50;10.10;;;;;;;19.03;60.34;100709.16;108196;1253;72679;-72
2023/09/13 06:08:18;;;;;;;14.90;10.90;;;;;;;19.14;60.00;100711.34;108009;1255;71593;-72
2023/09/13 06:10:46;;;;;;;12.00;9.40;;;;;;;19.27;59.42;100713.74;107988;1254;61738;-73
2023/09/13 06:13:15;;;;;;;14.00;10.60;;;;;;;19.39;58.76;100704.05;108143;1254;59621;-74
2023/09/13 06:15:42;;;;;;;14.30;10.60;;;;;;;19.53;58.14;100703.25;107959;1253;72520;-72
2023/09/13 06:29:48;;;;;;;15.50;10.60;;;;;;;20.21;55.23;100709.27;105604;1283;612966;-73
2023/09/13 06:32:15;;;;;;;12.70;9.70;;;;;;;20.61;53.51;100708.92;107197;1267;171713;-73
2023/09/13 06:35:03;;;;;;;13.20;9.70;;;;;;;20.70;53.10;100704.41;107282;1267;61048;-73
2023/09/13 06:37:35;;;;;;;12.80;9.60;;;;;;;20.78;52.71;100702.30;107130;1266;71046;-74
2023/09/13 06:40:04;;;;;;;12.50;9.40;;;;;;;20.86;51.95;100703.00;107178;1267;71249;-72
2023/09/13 06:42:32;;;;;;;11.50;9.30;;;;;;;20.91;51.22;100702.99;107335;1267;73144;-73
2023/09/13 06:45:15;;;;;;;13.90;9.40;;;;;;;20.96;50.85;100704.92;107180;1270;59287;-74
2023/09/13 06:47:54;;;;;;;11.00;8.60;;;;;;;21.04;50.86;100705.58;107225;1267;59346;-74
2023/09/13 06:50:22;;;;;;;10.90;8.20;;;;;;;21.12;50.54;100706.13;107270;1267;72435;-73
2023/09/13 06:52:53;;;;;;;11.60;8.40;;;;;;;21.21;50.41;100707.36;107236;1267;72590;-72
2023/09/13 06:55:41;;;;;;;11.40;9.10;;;;;;;21.31;50.15;100704.80;107268;1267;72960;-73
2023/09/13 06:58:14;;;;;;;10.10;8.00;;;;;;;21.40;49.95;100708.78;107268;1267;59656;-72
2023/09/13 07:00:47;;;;;;;9.20;7.70;;;;;;;21.49;49.42;100710.69;107263;1267;61106;-74
2023/09/13 07:03:35;;;;;;;12.20;7.90;;;;;;;21.57;49.18;100712.04;107243;1266;76010;-73
2023/09/13 07:06:07;;;;;;;10.40;8.10;;;;;;;21.65;49.30;100705.89;107241;1267;72433;-73
2023/09/13 07:08:35;;;;;;;12.10;8.10;;;;;;;21.72;49.02;100705.73;107154;1271;72727;-73
2023/09/13 07:11:04;;;;;;;9.50;7.40;;;;;;;21.77;48.33;100705.85;107131;1267;60261;-73
2023/09/13 07:13:32;;;;;;;11.00;8.20;;;;;;;21.84;47.88;100712.08;107095;1267;60080;-73
2023/09/13 07:15:59;;;;;;;11.80;8.20;;;;;;;21.89;48.12;100711.13;107089;1268;71100;-73
2023/09/13 07:18:27;;;;;;;11.10;8.30;;;;;;;21.99;48.02;100715.84;107337;1266;72716;-72
2023/09/13 07:20:54;;;;;;;11.30;7.90;;;;;;;22.09;47.52;100717.62;107232;1270;72956;-72
2023/09/13 07:23:22;;;;;;;11.50;8.40;;;;;;;22.14;47.63;100717.83;107209;1272;60259;-72
2023/09/13 07:25:49;;;;;;;10.20;8.50;;;;;;;22.16;47.87;100718.70;107394;1267;60140;-71
2023/09/13 07:28:17;;;;;;;12.40;8.80;;;;;;;22.18;47.81;100719.50;107452;1264;72588;-73
2023/09/13 07:30:45;;;;;;;11.60;8.60;;;;;;;22.24;47.69;100720.48;107287;1263;72755;-73
2023/09/13 07:33:12;;;;;;;11.50;8.20;;;;;;;22.27;47.88;100713.45;107300;1268;71846;-72
2023/09/13 07:35:40;;;;;;;9.20;7.40;;;;;;;22.32;47.42;100707.66;107579;1259;59717;-72
2023/09/13 07:38:07;;;;;;;11.20;7.80;;;;;;;22.41;47.17;100709.85;107415;1260;60420;-72
2023/09/13 07:40:37;;;;;;;9.40;7.10;;;;;;;22.54;46.87;100708.53;107445;1260;73095;-73
2023/09/13 07:43:06;;;;;;;10.70;7.40;;;;;;;22.68;46.65;100708.23;107426;1265;71715;-73
2023/09/13 07:45:36;;;;;;;11.70;8.00;;;;;;;22.80;46.61;100707.73;107426;1264;71522;-73
2023/09/13 07:48:04;;;;;;;10.80;7.90;;;;;;;22.95;46.74;100713.02;107599;1260;59636;-73
2023/09/13 07:50:40;;;;;;;11.40;7.70;;;;;;;23.07;45.89;100711.33;107401;1260;60112;-72
2023/09/13 07:53:08;;;;;;;11.70;8.00;;;;;;;23.11;44.71;100709.37;107525;1265;72800;-73
2023/09/13 07:55:36;;;;;;;12.90;7.90;;;;;;;23.11;45.27;100709.75;107501;1260;71658;-73
2023/09/13 07:58:05;;;;;;;11.00;8.10;;;;;;;23.21;45.55;100710.70;107643;1265;72735;-73
2023/09/13 08:00:32;;;;;;;11.60;8.20;;;;;;;23.35;45.46;100710.33;107622;1259;61201;-74
2023/09/13 08:03:01;;;;;;;10.70;7.50;;;;;;;23.49;45.29;100715.82;107484;1261;59686;-73
2023/09/13 08:05:28;;;;;;;11.40;8.20;;;;;;;23.60;44.72;100713.98;107528;1261;73500;-73
2023/09/13 08:07:57;;;;;;;11.40;7.40;;;;;;;23.71;44.55;100715.86;107462;1259;72912;-73
2023/09/13 08:10:25;;;;;;;10.50;7.00;;;;;;;23.84;43.77;100713.69;107530;1260;72331;-74
2023/09/13 08:12:53;;;;;;;11.10;7.30;;;;;;;23.97;42.95;100710.95;107547;1260;59730;-74
2023/09/13 08:15:21;;;;;;;10.80;7.20;;;;;;;24.08;42.56;100709.04;107463;1260;59678;-74
2023/09/13 08:18:05;;;;;;;10.90;7.00;;;;;;;24.20;41.43;100710.88;107524;1260;75306;-74
2023/09/13 08:20:32;;;;;;;9.10;6.70;;;;;;;24.29;40.78;100708.03;107531;1260;72752;-75
2023/09/13 08:23:00;;;;;;;10.20;6.40;;;;;;;24.41;39.91;100703.20;107574;1263;72744;-74
2023/09/13 08:25:28;;;;;;;10.10;6.80;;;;;;;24.50;39.11;100701.31;107618;1260;59507;-75
2023/09/13 08:27:55;;;;;;;12.70;6.40;;;;;;;24.57;38.43;100701.05;107560;1261;60061;-72
2023/09/13 08:30:23;;;;;;;13.80;6.70;;;;;;;24.63;38.78;100703.59;107488;1266;73533;-74
2023/09/13 08:32:51;;;;;;;9.10;6.10;;;;;;;24.71;38.67;100697.74;107508;1260;74980;-73
2023/09/13 08:35:18;;;;;;;10.10;6.40;;;;;;;24.83;38.77;100696.02;107630;1260;72607;-73
2023/09/13 08:37:47;;;;;;;11.70;6.90;;;;;;;24.96;38.84;100699.42;107624;1261;60077;-73
2023/09/13 08:40:15;;;;;;;10.50;6.40;;;;;;;25.11;38.80;100698.72;107531;1260;60077;-73
2023/09/13 08:42:43;;;;;;;11.00;6.50;;;;;;;25.24;38.30;100695.38;107504;1266;71910;-73
2023/09/13 08:45:12;;;;;;;9.60;6.10;;;;;;;25.35;38.09;100689.10;107503;1260;71418;-75
2023/09/13 08:47:43;;;;;;;10.40;6.10;;;;;;;25.48;37.77;100687.06;107617;1261;72148;-72
2023/09/13 08:50:27;;;;;;;9.80;5.90;;;;;;;25.60;36.82;100687.16;107568;1261;59740;-74
2023/09/13 08:52:57;;;;;;;7.70;5.60;;;;;;;25.68;36.54;100681.96;107561;1260;61047;-74
2023/09/13 08:55:26;;;;;;;10.40;5.50;;;;;;;25.78;36.48;100681.02;107751;1261;72985;-75
2023/09/13 08:57:55;;;;;;;8.30;5.40;;;;;;;25.89;36.97;100678.71;107733;1261;71418;-72
2023/09/13 09:00:24;;;;;;;9.60;5.80;;;;;;;26.01;36.82;100675.43;107699;1261;74766;-72
2023/09/13 09:02:51;;;;;;;7.80;5.60;;;;;;;26.13;36.38;100675.14;107521;1266;59987;-72
2023/09/13 09:05:19;;;;;;;10.30;5.60;;;;;;;26.25;36.46;100676.42;107441;1267;60205;-74
2023/09/13 09:07:47;;;;;;;8.90;5.60;;;;;;;26.36;36.23;100676.27;107536;1261;73164;-74
2023/09/13 09:10:15;;;;;;;8.50;5.70;;;;;;;26.50;36.18;100673.40;107591;1260;72212;-73
2023/09/13 09:12:47;;;;;;;7.80;4.90;;;;;;;26.63;36.03;100668.02;107536;1261;71674;-74
2023/09/13 09:15:15;;;;;;;7.50;4.70;;;;;;;26.76;35.34;100664.27;107630;1260;59644;-73
2023/09/13 09:17:46;;;;;;;9.70;4.80;;;;;;;26.87;34.58;100666.25;107529;1260;59625;-73
2023/09/13 09:20:14;;;;;;;;;;;;;;;26.97;33.63;100663.15;107580;1260;71911;-74
2023/09/13 09:22:41;;;;;;;6.80;4.40;;;;;;;27.05;33.75;100664.38;107589;1263;72631;-74
2023/09/13 09:25:10;;;;;;;9.50;5.70;;;;;;;27.15;34.14;100664.72;107482;1261;71221;-73
2023/09/13 09:27:39;;;;;;;9.10;4.60;;;;;;;27.25;33.86;100661.52;107550;1261;59911;-72
2023/09/13 09:30:07;;;;;;;8.50;4.80;;;;;;;27.36;33.83;100662.08;107408;1261;59729;-72
2023/09/13 09:32:38;;;;;;;8.70;4.80;;;;;;;27.45;34.06;100664.33;107541;1258;72855;-72
2023/09/13 09:35:06;;;;;;;11.00;4.90;;;;;;;27.54;33.76;100660.71;107359;1260;73182;-73
2023/09/13 09:37:34;;;;;;;9.30;5.10;;;;;;;27.62;34.31;100660.99;107509;1260;74944;-73
2023/09/13 09:40:09;;;;;;;7.10;4.60;;;;;;;27.74;34.31;100655.90;107531;1260;59563;-74
2023/09/13 09:42:37;;;;;;;6.80;4.60;;;;;;;27.81;33.63;100654.28;107556;1261;60346;-74
2023/09/13 09:45:05;;;;;;;9.20;4.70;;;;;;;27.89;33.89;100651.88;107617;1260;72811;-73
2023/09/13 09:47:37;;;;;;;9.10;4.60;;;;;;;27.99;32.92;100652.64;107520;1261;72742;-73
2023/09/13 09:50:06;;;;;;;8.90;4.40;;;;;;;28.05;31.91;100646.98;107731;1256;63746;-74
2023/09/13 09:52:34;;;;;;;10.80;5.00;;;;;;;28.11;32.19;100644.23;107703;1257;59729;-70
2023/09/13 09:55:04;;;;;;;8.90;4.50;;;;;;;28.21;32.11;100644.91;107671;1261;59547;-73
2023/09/13 09:57:32;;;;;;;11.00;4.40;;;;;;;28.30;31.72;100645.95;107528;1257;64251;-73
2023/09/13 10:00:07;;;;;;;6.20;4.40;;;;;;;28.36;30.95;100643.83;107574;1257;64139;-73
2023/09/13 10:02:36;;;;;;;8.40;4.10;;;;;;;28.41;30.80;100643.20;107777;1256;63920;-73
2023/09/13 10:05:05;;;;;;;7.70;3.70;;;;;;;28.45;30.45;100638.55;107633;1260;59618;-73
2023/09/13 10:07:43;;;;;;;7.40;4.20;;;;;;;28.51;30.10;100641.10;107795;1256;59612;-74
2023/09/13 10:10:26;;;;;;;6.10;3.30;;;;;;;28.59;29.92;100638.11;107909;1255;62924;-73
2023/09/13 10:12:54;;;;;;;6.00;3.70;;;;;;;28.67;28.97;100635.14;107744;1256;62550;-72
2023/09/13 10:15:22;;;;;;;6.90;4.00;;;;;;;28.74;29.03;100634.19;107796;1257;63907;-73
2023/09/13 10:17:50;;;;;;;7.60;3.90;;;;;;;28.79;28.58;100633.13;107803;1257;59602;-73
2023/09/13 10:20:18;;;;;;;7.80;4.10;;;;;;;28.83;27.79;100633.95;107571;1257;59529;-72
2023/09/13 10:22:46;;;;;;;9.10;3.80;;;;;;;28.86;28.21;100636.80;107640;1255;64237;-73
2023/09/13 10:25:15;;;;;;;8.40;5.10;;;;;;;28.87;28.74;100630.05;107730;1256;66225;-73
2023/09/13 10:27:46;;;;;;;7.20;3.80;;;;;;;28.84;28.77;100630.88;107694;1257;72619;-74
2023/09/13 10:30:23;;;;;;;7.70;3.70;;;;;;;28.88;29.02;100626.61;107636;1257;60285;-74
2023/09/13 10:32:56;;;;;;;7.20;3.70;;;;;;;28.95;28.83;100625.09;107709;1256;58989;-73
2023/09/13 10:35:28;;;;;;;6.60;4.10;;;;;;;29.06;28.68;100623.40;107776;1256;62852;-73
2023/09/13 10:38:05;;;;;;;10.80;5.30;;;;;;;29.17;28.04;100624.89;107819;1257;65874;-73
2023/09/13 10:41:00;;;;;;;7.50;4.10;;;;;;;29.26;27.72;100622.05;107752;1256;63875;-73
2023/09/13 10:43:28;;;;;;;6.10;3.70;;;;;;;29.35;27.18;100620.38;107720;1257;60455;-73
2023/09/13 10:45:57;;;;;;;7.50;3.60;;;;;;;29.41;27.16;100620.66;107775;1257;60374;-73
2023/09/13 10:48:24;;;;;;;7.80;3.60;;;;;;;29.47;27.16;100618.33;107836;1257;63674;-74
2023/09/13 10:50:54;;;;;;;5.00;3.30;;;;;;;29.49;26.63;100615.37;107673;1256;62656;-73
2023/09/13 10:53:22;;;;;;;8.70;3.40;;;;;;;29.52;26.61;100614.42;107612;1257;63719;-74
2023/09/13 10:55:50;;;;;;;6.40;3.60;;;;;;;29.56;26.53;100611.23;107723;1257;60325;-73
2023/09/13 10:58:20;;;;;;;6.90;3.60;;;;;;;29.60;26.38;100607.88;107857;1257;60507;-74
2023/09/13 11:00:53;;;;;;;5.80;3.10;;;;;;;29.66;25.65;100605.96;107627;1254;76015;-74
2023/09/13 11:03:21;;;;;;;5.60;3.00;;;;;;;29.72;25.25;100603.23;107662;1258;64006;-74
2023/09/13 11:05:52;;;;;;;6.30;3.10;;;;;;;29.77;25.50;100600.58;107692;1257;62523;-74
2023/09/13 11:08:30;;;;;;;5.80;3.10;;;;;;;29.79;25.68;100600.05;107640;1257;60417;-74
2023/09/13 11:11:16;;;;;;;7.00;3.50;;;;;;;29.80;26.61;100598.71;107756;1257;60600;-74
2023/09/13 11:13:45;;;;;;;5.00;3.50;;;;;;;29.85;26.61;100594.65;107748;1254;63868;-74
2023/09/13 11:16:13;;;;;;;6.10;3.70;;;;;;;29.89;26.02;100592.77;107814;1257;62870;-74
2023/09/13 11:18:49;;;;;;;9.70;4.10;;;;;;;29.91;25.37;100591.60;107811;1257;74884;-74
2023/09/13 11:21:21;;;;;;;6.60;3.40;;;;;;;29.97;25.68;100592.86;107687;1256;60419;-73
2023/09/13 11:23:49;;;;;;;8.50;4.00;;;;;;;30.02;25.92;100590.68;107761;1254;60450;-72
2023/09/13 11:26:48;;;;;;;5.90;3.80;;;;;;;30.02;25.63;100584.39;107732;1254;63625;-73
2023/09/13 11:29:23;;;;;;;7.40;3.50;;;;;;;29.97;25.84;100581.78;107675;1257;62674;-73